createdAt,value
2018-03-27T00:00:45.905Z,8.30
2018-03-27T00:03:13.430Z,8.40
2018-03-27T00:05:41.490Z,8.30
2018-03-27T00:08:09.029Z,8.20
2018-03-27T00:10:36.563Z,8.30
2018-03-27T00:13:04.588Z,8.40
2018-03-27T00:15:33.155Z,8.50
2018-03-27T00:18:01.483Z,8.30
2018-03-27T00:20:30.148Z,8.30
2018-03-27T00:22:58.227Z,8.40
2018-03-27T00:25:25.759Z,8.40
2018-03-27T00:28:05.095Z,8.40
2018-03-27T00:30:45.190Z,8.00
2018-03-27T00:33:25.122Z,8.00
2018-03-27T00:36:05.123Z,8.10
2018-03-27T00:38:44.561Z,8.00
2018-03-27T00:41:32.743Z,8.00
2018-03-27T00:44:00.291Z,8.00
2018-03-27T00:46:29.271Z,8.00
2018-03-27T00:48:56.860Z,8.00
2018-03-27T00:51:24.386Z,7.90
2018-03-27T00:53:51.919Z,8.00
2018-03-27T00:56:19.431Z,8.10
2018-03-27T00:58:46.976Z,8.20
2018-03-27T01:01:15.649Z,8.30
2018-03-27T01:03:43.358Z,8.30
2018-03-27T01:06:10.876Z,8.30
2018-03-27T01:08:39.161Z,8.00
2018-03-27T01:11:07.470Z,8.00
2018-03-27T01:13:34.983Z,8.00
2018-03-27T01:16:03.272Z,8.00
2018-03-27T01:18:31.483Z,8.00
2018-03-27T01:20:59.006Z,8.10
2018-03-27T01:23:27.310Z,8.10
2018-03-27T01:25:55.982Z,8.10
2018-03-27T01:28:24.281Z,8.20
2018-03-27T01:30:52.783Z,8.30
2018-03-27T01:33:20.337Z,8.30
2018-03-27T01:35:48.642Z,8.20
2018-03-27T01:38:16.191Z,8.30
2018-03-27T01:40:43.823Z,8.30
2018-03-27T01:43:11.342Z,8.30
2018-03-27T01:45:38.887Z,8.30
2018-03-27T01:48:06.433Z,8.30
2018-03-27T01:50:34.643Z,8.20
2018-03-27T01:53:03.004Z,8.00
2018-03-27T01:55:30.539Z,8.00
2018-03-27T01:57:58.075Z,8.10
2018-03-27T02:00:25.650Z,8.00
2018-03-27T02:02:54.089Z,8.00
2018-03-27T02:05:23.096Z,8.00
2018-03-27T02:07:50.651Z,8.00
2018-03-27T02:10:18.319Z,8.00
2018-03-27T02:12:51.522Z,8.10
2018-03-27T02:15:24.912Z,8.10
2018-03-27T02:17:59.153Z,8.10
2018-03-27T02:20:32.383Z,8.10
2018-03-27T02:23:05.466Z,8.00
2018-03-27T02:25:33.238Z,8.00
2018-03-27T02:28:00.949Z,7.90
2018-03-27T02:30:30.740Z,7.80
2018-03-27T02:32:58.284Z,7.80
2018-03-27T02:35:26.563Z,7.60
2018-03-27T02:37:55.640Z,7.50
2018-03-27T02:40:23.968Z,7.50
2018-03-27T02:42:51.509Z,7.50
2018-03-27T02:45:19.836Z,7.40
2018-03-27T02:47:47.412Z,7.30
2018-03-27T02:50:15.049Z,7.30
2018-03-27T02:52:43.093Z,7.30
2018-03-27T02:55:10.742Z,7.30
2018-03-27T02:57:38.222Z,7.10
2018-03-27T03:00:05.752Z,7.10
2018-03-27T03:02:33.294Z,7.20
2018-03-27T03:05:00.869Z,7.00
2018-03-27T03:07:28.472Z,7.00
2018-03-27T03:09:56.043Z,7.20
2018-03-27T03:12:24.605Z,7.20
2018-03-27T03:14:52.169Z,7.30
2018-03-27T03:17:19.736Z,7.30
2018-03-27T03:19:47.272Z,7.20
2018-03-27T03:22:15.267Z,7.20
2018-03-27T03:24:42.851Z,7.10
2018-03-27T03:27:10.445Z,7.20
2018-03-27T03:29:37.981Z,7.30
2018-03-27T03:32:06.318Z,7.40
2018-03-27T03:34:33.973Z,7.40
2018-03-27T03:37:01.546Z,7.30
2018-03-27T03:39:29.106Z,7.30
2018-03-27T03:41:56.659Z,7.30
2018-03-27T03:44:25.194Z,7.10
2018-03-27T03:46:53.974Z,7.20
2018-03-27T03:49:23.120Z,7.20
2018-03-27T03:51:50.678Z,7.20
2018-03-27T03:54:19.463Z,7.20
2018-03-27T03:56:47.056Z,7.20
2018-03-27T03:59:15.207Z,7.20
2018-03-27T04:01:42.864Z,7.30
2018-03-27T04:04:10.379Z,7.30
2018-03-27T04:06:38.715Z,7.40
2018-03-27T04:09:06.259Z,7.40
2018-03-27T04:11:33.815Z,7.30
2018-03-27T04:14:01.360Z,7.30
2018-03-27T04:16:30.351Z,7.30
2018-03-27T04:18:57.922Z,7.30
2018-03-27T04:21:26.222Z,7.30
2018-03-27T04:23:54.258Z,7.20
2018-03-27T04:26:21.843Z,7.20
2018-03-27T04:28:50.151Z,7.20
2018-03-27T04:31:17.743Z,7.30
2018-03-27T04:33:45.895Z,7.40
2018-03-27T04:36:14.366Z,7.40
2018-03-27T04:38:41.928Z,7.40
2018-03-27T04:41:09.485Z,7.40
2018-03-27T04:43:37.125Z,7.50
2018-03-27T04:46:05.175Z,7.60
2018-03-27T04:48:32.747Z,7.60
2018-03-27T04:51:00.275Z,7.60
2018-03-27T04:53:28.585Z,7.70
2018-03-27T04:55:56.126Z,7.70
2018-03-27T04:58:23.655Z,7.70
2018-03-27T05:00:52.000Z,7.70
2018-03-27T05:03:20.466Z,7.70
2018-03-27T05:05:47.997Z,7.70
2018-03-27T05:08:16.440Z,7.80
2018-03-27T05:10:45.168Z,7.80
2018-03-27T05:13:12.750Z,7.70
2018-03-27T05:15:40.291Z,7.60
2018-03-27T05:18:07.833Z,7.60
2018-03-27T05:20:36.252Z,7.50
2018-03-27T05:23:03.796Z,7.30
2018-03-27T05:25:31.346Z,7.30
2018-03-27T05:27:58.931Z,7.30
2018-03-27T05:30:27.863Z,7.40
2018-03-27T05:32:56.199Z,7.50
2018-03-27T05:35:23.916Z,7.60
2018-03-27T05:37:51.443Z,7.70
2018-03-27T05:40:19.932Z,7.60
2018-03-27T05:42:47.512Z,7.60
2018-03-27T05:45:15.861Z,7.70
2018-03-27T05:47:43.377Z,7.70
2018-03-27T05:50:10.911Z,7.70
2018-03-27T05:52:40.034Z,7.70
2018-03-27T05:55:08.446Z,7.80
2018-03-27T05:57:36.015Z,7.80
2018-03-27T06:00:04.910Z,7.70
2018-03-27T06:02:33.281Z,7.80
2018-03-27T06:05:00.828Z,7.90
2018-03-27T06:07:29.225Z,8.00
2018-03-27T06:09:57.522Z,8.00
2018-03-27T06:12:25.820Z,7.90
2018-03-27T06:14:54.190Z,8.00
2018-03-27T06:17:21.745Z,8.10
2018-03-27T06:19:49.284Z,8.10
2018-03-27T06:22:16.869Z,8.20
2018-03-27T06:24:44.916Z,8.20
2018-03-27T06:27:12.485Z,8.00
2018-03-27T06:29:40.115Z,8.00
2018-03-27T06:32:07.627Z,7.90
2018-03-27T06:34:36.025Z,7.90
2018-03-27T06:37:03.971Z,7.90
2018-03-27T06:39:31.502Z,7.90
2018-03-27T06:41:59.799Z,8.00
2018-03-27T06:44:28.727Z,8.00
2018-03-27T06:46:57.003Z,7.80
2018-03-27T06:49:25.521Z,7.70
2018-03-27T06:51:53.053Z,7.80
2018-03-27T06:54:20.608Z,7.70
2018-03-27T06:56:49.072Z,7.60
2018-03-27T06:59:17.400Z,7.40
2018-03-27T07:01:44.998Z,7.40
2018-03-27T07:04:13.466Z,7.50
2018-03-27T07:06:41.039Z,7.60
2018-03-27T07:09:08.584Z,7.70
2018-03-27T07:11:36.683Z,7.70
2018-03-27T07:14:05.711Z,7.50
2018-03-27T07:16:33.278Z,7.50
2018-03-27T07:19:01.372Z,7.50
2018-03-27T07:21:28.906Z,7.50
2018-03-27T07:23:56.582Z,7.70
2018-03-27T07:26:24.126Z,7.60
2018-03-27T07:28:51.679Z,7.60
2018-03-27T07:31:19.240Z,7.60
2018-03-27T07:33:46.776Z,7.60
2018-03-27T07:36:14.986Z,7.60
2018-03-27T07:38:43.670Z,7.70
2018-03-27T07:41:11.232Z,7.90
2018-03-27T07:43:38.802Z,8.00
2018-03-27T07:46:06.354Z,8.00
2018-03-27T07:48:34.943Z,8.10
2018-03-27T07:51:02.509Z,8.10
2018-03-27T07:53:30.075Z,8.10
2018-03-27T07:55:57.630Z,8.10
2018-03-27T07:58:25.938Z,8.20
2018-03-27T08:00:53.717Z,8.20
2018-03-27T08:03:21.274Z,8.40
2018-03-27T08:05:49.737Z,8.40
2018-03-27T08:08:17.307Z,8.50
2018-03-27T08:10:45.701Z,8.60
2018-03-27T08:13:14.029Z,8.70
2018-03-27T08:15:41.542Z,8.80
2018-03-27T08:18:09.091Z,8.80
2018-03-27T08:20:37.116Z,8.60
2018-03-27T08:23:05.320Z,8.70
2018-03-27T08:25:32.844Z,8.80
2018-03-27T08:28:00.894Z,8.60
2018-03-27T08:30:30.007Z,8.70
2018-03-27T08:32:57.530Z,8.60
2018-03-27T08:35:26.001Z,8.60
2018-03-27T08:37:53.546Z,8.60
2018-03-27T08:40:21.074Z,8.70
2018-03-27T08:42:48.639Z,8.70
2018-03-27T08:45:16.515Z,8.80
2018-03-27T08:47:44.067Z,8.60
2018-03-27T08:50:12.924Z,8.60
2018-03-27T08:52:40.480Z,8.80
2018-03-27T08:55:09.833Z,8.90
2018-03-27T08:57:37.349Z,8.90
2018-03-27T09:00:05.232Z,8.70
2018-03-27T09:02:33.800Z,8.80
2018-03-27T09:05:02.112Z,8.90
2018-03-27T09:07:30.341Z,8.90
2018-03-27T09:09:58.619Z,8.70
2018-03-27T09:12:28.055Z,8.60
2018-03-27T09:14:55.622Z,8.60
2018-03-27T09:17:23.181Z,8.60
2018-03-27T09:19:51.061Z,8.70
2018-03-27T09:22:18.632Z,8.80
2018-03-27T09:24:46.784Z,8.80
2018-03-27T09:27:14.418Z,8.70
2018-03-27T09:29:43.034Z,8.40
2018-03-27T09:32:12.561Z,8.40
2018-03-27T09:34:41.782Z,8.60
2018-03-27T09:37:11.343Z,8.80
2018-03-27T09:39:39.335Z,8.80
2018-03-27T09:42:06.855Z,8.90
2018-03-27T09:44:34.411Z,9.00
2018-03-27T09:47:01.938Z,9.10
2018-03-27T09:49:29.524Z,9.10
2018-03-27T09:51:57.054Z,9.10
2018-03-27T09:54:26.407Z,9.40
2018-03-27T09:56:54.530Z,9.40
2018-03-27T09:59:22.065Z,9.40
2018-03-27T10:01:50.070Z,9.50
2018-03-27T10:04:19.063Z,9.70
2018-03-27T10:06:47.483Z,9.80
2018-03-27T10:09:15.889Z,9.80
2018-03-27T10:11:44.331Z,9.90
2018-03-27T10:14:11.891Z,9.90
2018-03-27T10:16:40.493Z,9.90
2018-03-27T10:19:08.026Z,10.10
2018-03-27T10:21:35.570Z,9.90
2018-03-27T10:24:03.475Z,10.00
2018-03-27T10:26:31.880Z,10.10
2018-03-27T10:28:59.442Z,10.20
2018-03-27T10:31:26.975Z,10.30
2018-03-27T10:33:55.150Z,10.20
2018-03-27T10:36:22.707Z,10.10
2018-03-27T10:38:50.342Z,10.20
2018-03-27T10:41:18.279Z,10.20
2018-03-27T10:43:45.866Z,10.10
2018-03-27T10:46:15.164Z,10.10
2018-03-27T10:48:43.582Z,10.40
2018-03-27T10:51:11.123Z,10.40
2018-03-27T10:53:38.666Z,10.40
2018-03-27T10:56:06.235Z,10.50
2018-03-27T10:58:34.729Z,10.60
2018-03-27T11:01:02.815Z,10.60
2018-03-27T11:03:30.435Z,10.70
2018-03-27T11:05:58.611Z,10.80
2018-03-27T11:08:27.452Z,10.70
2018-03-27T11:10:55.820Z,10.70
2018-03-27T11:13:24.023Z,10.70
2018-03-27T11:15:51.688Z,10.60
2018-03-27T11:18:19.236Z,10.70
2018-03-27T11:20:46.780Z,10.70
2018-03-27T11:23:14.471Z,10.90
2018-03-27T11:25:42.587Z,10.90
2018-03-27T11:28:10.376Z,10.90
2018-03-27T11:30:37.934Z,10.70
2018-03-27T11:33:06.910Z,10.70
2018-03-27T11:35:34.923Z,10.20
2018-03-27T11:38:03.416Z,10.10
2018-03-27T11:53:26.264Z,10.00
2018-03-27T11:55:53.791Z,8.90
2018-03-27T11:58:22.144Z,8.70
2018-03-27T12:00:49.704Z,8.60
2018-03-27T12:03:17.250Z,8.70
2018-03-27T12:05:45.763Z,8.70
2018-03-27T12:08:13.431Z,8.80
2018-03-27T12:10:41.620Z,8.80
2018-03-27T12:13:09.187Z,8.80
2018-03-27T12:15:36.919Z,8.90
2018-03-27T12:18:05.304Z,9.00
2018-03-27T12:20:33.727Z,9.10
2018-03-27T12:23:02.740Z,9.20
2018-03-27T12:25:30.266Z,9.40
2018-03-27T12:27:57.835Z,9.40
2018-03-27T12:30:26.431Z,9.50
2018-03-27T12:32:55.221Z,9.50
2018-03-27T12:35:22.804Z,9.40
2018-03-27T12:37:50.380Z,9.50
2018-03-27T12:40:18.738Z,9.60
2018-03-27T12:42:46.571Z,9.70
2018-03-27T12:45:14.085Z,9.80
2018-03-27T12:47:41.661Z,9.80
2018-03-27T12:50:10.204Z,9.90
2018-03-27T12:52:38.643Z,10.20
2018-03-27T12:55:06.490Z,10.20
2018-03-27T12:57:34.007Z,10.20
2018-03-27T13:00:01.669Z,10.40
2018-03-27T13:02:32.006Z,10.40
2018-03-27T13:05:00.020Z,10.50
2018-03-27T13:07:27.575Z,10.40
2018-03-27T13:09:55.972Z,10.50
2018-03-27T13:12:23.868Z,10.50
2018-03-27T13:14:52.815Z,10.70
2018-03-27T13:17:20.563Z,10.60
2018-03-27T13:19:48.146Z,10.70
2018-03-27T13:22:15.699Z,10.80
2018-03-27T13:24:43.285Z,10.80
2018-03-27T13:27:10.905Z,10.70
2018-03-27T13:29:38.447Z,10.80
2018-03-27T13:32:05.963Z,10.90
2018-03-27T13:34:33.859Z,10.80
2018-03-27T13:37:01.888Z,10.50
2018-03-27T13:39:29.447Z,10.30
2018-03-27T13:41:56.978Z,10.30
2018-03-27T13:44:25.004Z,10.40
2018-03-27T13:46:52.610Z,10.30
2018-03-27T13:49:20.240Z,10.10
2018-03-27T13:51:48.534Z,10.10
2018-03-27T13:54:16.078Z,10.10
2018-03-27T13:56:43.639Z,10.00
2018-03-27T13:59:11.196Z,10.00
2018-03-27T14:01:38.750Z,9.90
2018-03-27T14:04:07.651Z,9.70
2018-03-27T14:06:35.956Z,9.80
2018-03-27T14:09:05.359Z,9.80
2018-03-27T14:11:32.894Z,9.90
2018-03-27T14:14:00.415Z,10.00
2018-03-27T14:16:29.946Z,10.10
2018-03-27T14:18:58.312Z,9.90
2018-03-27T14:21:25.823Z,9.90
2018-03-27T14:23:53.442Z,9.80
2018-03-27T14:26:22.810Z,9.80
2018-03-27T14:28:51.096Z,9.80
2018-03-27T14:31:19.103Z,9.60
2018-03-27T14:33:46.730Z,9.50
2018-03-27T14:36:14.853Z,9.40
2018-03-27T14:38:42.369Z,9.40
2018-03-27T14:41:09.888Z,9.30
2018-03-27T14:43:37.445Z,9.30
2018-03-27T14:46:06.844Z,9.30
2018-03-27T14:48:34.396Z,9.00
2018-03-27T14:51:01.951Z,8.90
2018-03-27T14:53:29.627Z,8.60
2018-03-27T14:55:57.159Z,8.50
2018-03-27T14:58:25.295Z,8.30
2018-03-27T15:00:52.810Z,8.30
2018-03-27T15:03:20.379Z,8.30
2018-03-27T15:05:47.921Z,8.30
2018-03-27T15:08:16.833Z,8.10
2018-03-27T15:10:44.392Z,8.20
2018-03-27T15:13:12.014Z,7.90
2018-03-27T15:15:42.242Z,7.70
2018-03-27T15:18:10.584Z,7.90
2018-03-27T15:20:38.987Z,7.80
2018-03-27T15:23:07.373Z,7.90
2018-03-27T15:25:36.473Z,7.70
2018-03-27T15:28:05.608Z,7.70
2018-03-27T15:30:33.987Z,7.70
2018-03-27T15:33:01.564Z,7.80
2018-03-27T15:35:29.917Z,7.90
2018-03-27T15:37:57.444Z,7.80
2018-03-27T15:40:25.769Z,7.70
2018-03-27T15:42:53.334Z,7.70
2018-03-27T15:45:20.922Z,7.80
2018-03-27T15:47:48.433Z,7.50
2018-03-27T15:50:16.115Z,7.40
2018-03-27T15:52:43.633Z,7.40
2018-03-27T15:55:11.202Z,7.40
2018-03-27T15:57:38.801Z,7.50
2018-03-27T16:00:06.902Z,7.60
2018-03-27T16:02:34.924Z,7.80
2018-03-27T16:05:02.455Z,8.00
2018-03-27T16:07:30.734Z,8.00
2018-03-27T16:09:58.294Z,8.00
2018-03-27T16:12:27.474Z,8.00
2018-03-27T16:14:55.829Z,7.80
2018-03-27T16:17:24.141Z,7.50
2018-03-27T16:19:52.432Z,7.50
2018-03-27T16:22:20.086Z,7.50
2018-03-27T16:24:48.381Z,7.60
2018-03-27T16:27:15.974Z,7.60
2018-03-27T16:29:43.824Z,7.70
2018-03-27T16:32:11.686Z,7.80
2018-03-27T16:34:39.819Z,7.80
2018-03-27T16:37:08.274Z,7.60
2018-03-27T16:39:35.818Z,7.70
2018-03-27T16:42:03.332Z,7.60
2018-03-27T16:44:31.961Z,7.70
2018-03-27T16:46:59.560Z,7.70
2018-03-27T16:49:28.394Z,7.60
2018-03-27T16:51:55.950Z,7.60
2018-03-27T16:54:23.708Z,7.60
2018-03-27T16:56:51.254Z,7.70
2018-03-27T16:59:18.820Z,7.60
2018-03-27T17:01:46.344Z,7.50
2018-03-27T17:04:15.167Z,7.40
2018-03-27T17:06:42.765Z,7.40
2018-03-27T17:09:11.145Z,7.40
2018-03-27T17:11:38.824Z,7.10
2018-03-27T17:14:07.656Z,7.10
2018-03-27T17:16:35.320Z,6.90
2018-03-27T17:19:02.924Z,6.80
2018-03-27T17:21:30.487Z,6.90
2018-03-27T17:23:58.077Z,7.00
2018-03-27T17:26:26.441Z,7.00
2018-03-27T17:28:54.047Z,7.00
2018-03-27T17:31:21.617Z,7.20
2018-03-27T17:33:49.186Z,7.20
2018-03-27T17:36:16.744Z,7.20
2018-03-27T17:38:45.435Z,7.40
2018-03-27T17:41:12.999Z,7.30
2018-03-27T17:43:40.534Z,7.30
2018-03-27T17:46:09.348Z,7.40
2018-03-27T17:48:37.130Z,7.60
2018-03-27T17:51:05.371Z,7.70
2018-03-27T17:53:33.143Z,7.60
2018-03-27T17:56:00.671Z,7.70
2018-03-27T17:58:30.628Z,7.60
2018-03-27T18:00:58.708Z,7.50
2018-03-27T18:03:26.296Z,7.50
2018-03-27T18:05:54.479Z,7.20
2018-03-27T18:08:22.063Z,7.10
2018-03-27T18:10:50.495Z,6.80
2018-03-27T18:13:18.347Z,6.80
2018-03-27T18:15:45.932Z,6.80
2018-03-27T18:18:14.428Z,6.80
2018-03-27T18:20:42.967Z,6.80
2018-03-27T18:23:10.872Z,6.80
2018-03-27T18:25:38.389Z,6.80
2018-03-27T18:28:06.148Z,6.80
2018-03-27T18:30:35.105Z,6.90
2018-03-27T18:33:03.158Z,6.80
2018-03-27T18:35:30.741Z,6.70
2018-03-27T18:38:00.007Z,6.60
2018-03-27T18:40:28.216Z,6.60
2018-03-27T18:42:55.789Z,6.60
2018-03-27T18:45:23.318Z,6.50
2018-03-27T18:47:50.886Z,6.40
2018-03-27T18:50:20.027Z,6.50
2018-03-27T18:52:47.587Z,6.50
2018-03-27T18:55:16.038Z,6.50
2018-03-27T18:57:45.264Z,6.50
2018-03-27T19:00:13.418Z,6.40
2018-03-27T19:02:40.979Z,6.50
2018-03-27T19:05:08.891Z,6.30
2018-03-27T19:07:36.538Z,6.30
2018-03-27T19:10:04.194Z,6.30
2018-03-27T19:12:31.873Z,6.40
2018-03-27T19:15:00.190Z,6.30
2018-03-27T19:17:28.355Z,6.30
2018-03-27T19:19:55.959Z,6.30
2018-03-27T19:22:23.857Z,6.30
2018-03-27T19:24:53.185Z,6.40
2018-03-27T19:27:20.923Z,6.50
2018-03-27T19:29:48.487Z,6.30
2018-03-27T19:32:16.080Z,6.30
2018-03-27T19:34:43.792Z,6.40
2018-03-27T19:37:11.349Z,6.40
2018-03-27T19:39:39.223Z,6.50
2018-03-27T19:42:07.210Z,6.40
2018-03-27T19:44:35.426Z,6.50
2018-03-27T19:47:03.299Z,6.40
2018-03-27T19:49:31.843Z,6.40
2018-03-27T19:51:59.423Z,6.30
2018-03-27T19:54:28.637Z,6.30
2018-03-27T19:56:56.255Z,6.30
2018-03-27T19:59:23.799Z,6.50
2018-03-27T20:01:51.359Z,6.40
2018-03-27T20:04:18.898Z,6.30
2018-03-27T20:06:46.535Z,6.30
2018-03-27T20:09:14.083Z,6.30
2018-03-27T20:11:41.723Z,6.30
2018-03-27T20:14:09.316Z,6.10
2018-03-27T20:16:37.615Z,6.00
2018-03-27T20:19:06.126Z,6.00
2018-03-27T20:21:33.696Z,6.00
2018-03-27T20:24:01.260Z,6.10
2018-03-27T20:26:29.868Z,6.20
2018-03-27T20:28:58.219Z,6.20
2018-03-27T20:31:25.739Z,6.20
2018-03-27T20:33:55.227Z,6.10
2018-03-27T20:36:22.808Z,6.00
2018-03-27T20:38:50.417Z,6.00
2018-03-27T20:41:18.778Z,6.10
2018-03-27T20:43:46.350Z,6.00
2018-03-27T20:46:14.235Z,6.00
2018-03-27T20:48:44.226Z,6.00
2018-03-27T20:51:12.770Z,6.00
2018-03-27T20:53:40.906Z,5.90
2018-03-27T20:56:08.555Z,6.00
2018-03-27T20:58:36.867Z,6.00
2018-03-27T21:01:04.881Z,6.00
2018-03-27T21:03:32.440Z,6.10
2018-03-27T21:06:00.004Z,6.20
2018-03-27T21:08:29.710Z,6.20
2018-03-27T21:10:57.240Z,6.20
2018-03-27T21:13:25.444Z,6.20
2018-03-27T21:15:52.967Z,6.20
2018-03-27T21:18:21.506Z,6.30
2018-03-27T21:20:49.040Z,6.50
2018-03-27T21:23:16.567Z,6.50
2018-03-27T21:25:44.126Z,6.50
2018-03-27T21:28:12.448Z,6.40
2018-03-27T21:30:39.996Z,6.30
2018-03-27T21:33:07.522Z,6.40
2018-03-27T21:35:35.986Z,6.50
2018-03-27T21:38:03.721Z,6.30
2018-03-27T21:40:31.289Z,6.30
2018-03-27T21:42:59.071Z,6.30
2018-03-27T21:45:27.543Z,6.40
2018-03-27T21:47:55.860Z,6.30
2018-03-27T21:50:23.412Z,6.40
2018-03-27T21:52:51.416Z,6.40
2018-03-27T21:55:18.989Z,6.50
2018-03-27T21:57:46.527Z,6.50
2018-03-27T22:00:14.055Z,6.50
2018-03-27T22:02:42.035Z,6.60
2018-03-27T22:05:09.518Z,6.60
2018-03-27T22:07:37.018Z,6.60
2018-03-27T22:10:05.226Z,6.50
2018-03-27T22:12:32.758Z,6.60
2018-03-27T22:15:00.246Z,6.60
2018-03-27T22:17:28.110Z,6.40
2018-03-27T22:19:55.795Z,6.30
2018-03-27T22:22:23.288Z,6.40
2018-03-27T22:24:50.802Z,6.60
2018-03-27T22:27:18.315Z,6.70
2018-03-27T22:29:45.803Z,6.80
2018-03-27T22:32:14.149Z,7.00
2018-03-27T22:34:42.978Z,7.00
2018-03-27T22:37:10.499Z,7.10
2018-03-27T22:39:38.925Z,7.10
2018-03-27T22:42:06.409Z,7.10
2018-03-27T22:44:33.930Z,7.10
2018-03-27T22:47:01.418Z,7.10
2018-03-27T22:49:28.907Z,7.10
2018-03-27T22:51:56.420Z,7.10
2018-03-27T22:54:25.612Z,7.10
2018-03-27T22:56:54.065Z,7.10
2018-03-27T22:59:21.574Z,7.00
2018-03-27T23:01:49.579Z,7.00
2018-03-27T23:04:17.084Z,7.10
2018-03-27T23:06:45.080Z,7.00
2018-03-27T23:09:14.623Z,6.90
2018-03-27T23:11:43.261Z,6.60
2018-03-27T23:14:10.766Z,6.30
2018-03-27T23:16:38.295Z,6.10
2018-03-27T23:19:06.760Z,6.20
2018-03-27T23:21:35.971Z,6.20
2018-03-27T23:24:04.277Z,6.30
2018-03-27T23:26:32.563Z,6.40
2018-03-27T23:29:00.087Z,6.40
2018-03-27T23:31:27.751Z,6.50
2018-03-27T23:33:55.786Z,6.50
2018-03-27T23:36:23.285Z,6.60
2018-03-27T23:38:51.244Z,6.60
2018-03-27T23:41:20.039Z,6.70
2018-03-27T23:43:48.368Z,6.70
2018-03-27T23:46:16.467Z,6.80
2018-03-27T23:48:46.179Z,6.90
2018-03-27T23:51:14.585Z,6.90
2018-03-27T23:53:42.488Z,6.90
2018-03-27T23:56:10.136Z,6.90
2018-03-27T23:58:37.627Z,6.90
